createdAt,value
2019-02-17T00:04:19.179Z,2.85
2019-02-17T00:07:08.895Z,2.74
2019-02-17T00:09:52.439Z,2.62
2019-02-17T00:12:42.234Z,2.42
2019-02-17T00:15:26.299Z,2.31
2019-02-17T00:18:17.253Z,2.34
2019-02-17T00:20:47.973Z,2.37
2019-02-17T00:23:18.639Z,2.50
2019-02-17T00:25:49.349Z,2.35
2019-02-17T00:28:39.105Z,2.21
2019-02-17T00:31:49.479Z,2.23
2019-02-17T00:34:20.247Z,2.27
2019-02-17T00:36:50.917Z,2.36
2019-02-17T00:40:00.052Z,2.34
2019-02-17T00:42:50.083Z,2.30
2019-02-17T00:45:33.625Z,2.32
2019-02-17T00:48:23.431Z,2.42
2019-02-17T00:51:06.883Z,2.32
2019-02-17T00:54:15.997Z,2.32
2019-02-17T00:56:58.651Z,2.17
2019-02-17T00:59:48.747Z,2.10
2019-02-17T01:02:32.028Z,2.29
2019-02-17T01:05:02.673Z,2.14
2019-02-17T01:07:56.693Z,2.10
2019-02-17T01:10:39.651Z,2.22
2019-02-17T01:13:30.827Z,2.10
2019-02-17T01:16:01.514Z,1.97
2019-02-17T01:18:51.259Z,2.16
2019-02-17T01:21:40.996Z,2.13
2019-02-17T01:24:23.787Z,2.06
2019-02-17T01:27:13.524Z,2.05
2019-02-17T01:29:55.808Z,1.72
2019-02-17T01:33:04.640Z,1.95
2019-02-17T01:35:46.772Z,1.80
2019-02-17T01:38:36.526Z,1.78
2019-02-17T01:41:18.926Z,1.78
2019-02-17T01:44:08.730Z,1.88
2019-02-17T01:46:58.848Z,1.83
2019-02-17T01:49:48.573Z,1.70
2019-02-17T01:52:38.399Z,1.76
2019-02-17T01:55:28.155Z,1.72
2019-02-17T01:58:17.963Z,1.43
2019-02-17T02:01:07.789Z,1.36
2019-02-17T02:03:57.561Z,1.62
2019-02-17T02:06:47.331Z,1.59
2019-02-17T02:09:37.103Z,1.56
2019-02-17T02:12:26.859Z,1.46
2019-02-17T02:15:16.637Z,1.16
2019-02-17T02:18:06.380Z,1.47
2019-02-17T02:21:15.311Z,1.53
2019-02-17T02:24:05.248Z,1.48
2019-02-17T02:26:55.156Z,1.48
2019-02-17T02:35:02.923Z,1.43
2019-02-17T02:37:52.698Z,1.41
2019-02-17T02:41:01.584Z,1.21
2019-02-17T02:43:51.452Z,1.26
2019-02-17T02:46:41.213Z,1.16
2019-02-17T02:49:30.953Z,1.43
2019-02-17T02:52:39.804Z,1.34
2019-02-17T02:55:29.805Z,1.28
2019-02-17T02:58:32.362Z,1.10
2019-02-17T03:01:14.736Z,1.15
2019-02-17T03:04:04.480Z,1.13
2019-02-17T03:09:49.773Z,1.09
2019-02-17T03:12:39.482Z,1.16
2019-02-17T03:15:23.821Z,1.15
2019-02-17T03:18:13.576Z,1.02
2019-02-17T03:20:56.195Z,1.23
2019-02-17T03:23:45.898Z,1.55
2019-02-17T03:26:27.923Z,1.39
2019-02-17T03:29:17.783Z,1.30
2019-02-17T03:32:00.083Z,1.49
2019-02-17T03:34:49.820Z,1.40
2019-02-17T03:37:31.903Z,1.53
2019-02-17T03:40:21.637Z,1.14
2019-02-17T03:43:05.433Z,1.05
2019-02-17T03:45:55.150Z,0.83
2019-02-17T03:48:38.540Z,0.93
2019-02-17T03:51:28.247Z,0.92
2019-02-17T03:54:10.607Z,1.03
2019-02-17T03:57:00.348Z,1.16
2019-02-17T03:59:42.873Z,0.95
2019-02-17T04:02:32.615Z,0.92
2019-02-17T04:05:22.349Z,0.92
2019-02-17T04:08:05.931Z,0.69
2019-02-17T04:10:48.192Z,0.80
2019-02-17T04:16:35.247Z,0.58
2019-02-17T04:19:24.937Z,0.97
2019-02-17T04:22:07.043Z,1.08
2019-02-17T04:24:56.800Z,0.94
2019-02-17T04:27:39.439Z,0.94
2019-02-17T04:30:29.850Z,0.89
2019-02-17T04:33:13.444Z,0.71
2019-02-17T04:36:03.164Z,0.84
2019-02-17T04:38:45.595Z,0.79
2019-02-17T04:44:33.902Z,0.70
2019-02-17T04:47:04.534Z,0.64
2019-02-17T04:49:54.271Z,0.62
2019-02-17T04:52:37.075Z,0.66
2019-02-17T04:55:45.972Z,0.67
2019-02-17T04:58:28.802Z,0.74
2019-02-17T05:00:59.564Z,0.81
2019-02-17T05:03:30.164Z,0.55
2019-02-17T05:06:19.874Z,0.63
2019-02-17T05:09:06.486Z,0.58
2019-02-17T05:11:49.111Z,0.47
2019-02-17T05:14:38.873Z,0.46
2019-02-17T05:17:28.698Z,0.39
2019-02-17T05:20:18.519Z,0.49
2019-02-17T05:23:08.271Z,0.53
2019-02-17T05:25:58.059Z,0.54
2019-02-17T05:28:47.847Z,0.59
2019-02-17T05:31:37.668Z,0.55
2019-02-17T05:34:27.367Z,0.27
2019-02-17T05:37:17.091Z,0.29
2019-02-17T05:40:06.840Z,0.06
2019-02-17T05:42:49.963Z,0.20
2019-02-17T05:45:39.710Z,0.24
2019-02-17T05:48:22.583Z,0.25
2019-02-17T05:51:12.380Z,0.30
2019-02-17T05:54:02.179Z,0.37
2019-02-17T05:56:51.924Z,0.35
2019-02-17T05:59:34.290Z,0.25
2019-02-17T06:02:24.076Z,0.29
2019-02-17T06:05:13.978Z,0.09
2019-02-17T06:08:03.774Z,0.26
2019-02-17T06:10:53.515Z,0.34
2019-02-17T06:13:35.933Z,0.30
2019-02-17T06:16:25.665Z,0.27
2019-02-17T06:19:17.700Z,0.14
2019-02-17T06:21:59.852Z,0.17
2019-02-17T06:24:49.702Z,0.16
2019-02-17T06:27:39.489Z,0.03
2019-02-17T06:30:29.214Z,0.17
2019-02-17T06:33:12.433Z,0.25
2019-02-17T06:36:02.226Z,0.09
2019-02-17T06:38:44.217Z,0.13
2019-02-17T06:41:34.015Z,-0.03
2019-02-17T06:44:17.474Z,0.13
2019-02-17T06:50:16.136Z,0.12
2019-02-17T06:52:58.176Z,0.12
2019-02-17T06:56:08.983Z,0.02
2019-02-17T06:58:51.368Z,0.18
2019-02-17T07:05:03.724Z,0.19
2019-02-17T07:07:46.191Z,0.27
2019-02-17T07:10:55.042Z,0.35
2019-02-17T07:13:37.087Z,0.54
2019-02-17T07:16:26.838Z,0.48
2019-02-17T07:19:09.060Z,0.28
2019-02-17T07:21:58.818Z,0.41
2019-02-17T07:24:42.620Z,0.40
2019-02-17T07:27:51.520Z,0.43
2019-02-17T07:30:41.315Z,0.50
2019-02-17T07:33:31.019Z,0.47
2019-02-17T07:36:13.153Z,0.51
2019-02-17T07:42:00.380Z,0.45
2019-02-17T07:44:50.147Z,0.52
2019-02-17T07:47:32.689Z,0.63
2019-02-17T07:50:22.429Z,0.84
2019-02-17T07:53:12.197Z,0.96
2019-02-17T07:55:54.421Z,0.83
2019-02-17T07:58:44.142Z,0.84
2019-02-17T08:01:33.931Z,0.69
2019-02-17T08:04:23.711Z,0.73
2019-02-17T08:07:13.439Z,0.67
2019-02-17T08:10:03.230Z,0.71
2019-02-17T08:12:53.056Z,0.85
2019-02-17T08:15:55.117Z,0.76
2019-02-17T08:18:37.549Z,0.92
2019-02-17T08:21:27.284Z,0.88
2019-02-17T08:24:09.483Z,0.90
2019-02-17T08:26:59.221Z,1.22
2019-02-17T08:29:42.130Z,1.25
2019-02-17T08:32:31.830Z,1.29
2019-02-17T08:35:21.532Z,1.38
2019-02-17T08:38:04.098Z,1.55
2019-02-17T08:40:53.837Z,1.72
2019-02-17T08:43:43.552Z,1.99
2019-02-17T08:46:26.051Z,2.02
2019-02-17T08:49:15.806Z,2.06
2019-02-17T08:54:59.247Z,2.05
2019-02-17T08:57:49.037Z,2.08
2019-02-17T09:00:57.889Z,2.06
2019-02-17T09:06:37.458Z,2.42
2019-02-17T09:09:08.429Z,2.53
2019-02-17T09:11:58.198Z,2.58
2019-02-17T09:14:40.670Z,2.47
2019-02-17T09:17:30.502Z,2.83
2019-02-17T09:20:20.306Z,2.76
2019-02-17T09:23:10.086Z,2.87
2019-02-17T09:25:59.850Z,2.98
2019-02-17T09:28:49.626Z,3.12
2019-02-17T09:31:39.386Z,3.20
2019-02-17T09:34:47.926Z,3.44
2019-02-17T09:37:30.240Z,3.58
2019-02-17T09:43:13.485Z,3.94
2019-02-17T09:46:22.390Z,3.97
2019-02-17T09:49:12.168Z,4.11
2019-02-17T09:52:01.946Z,4.33
2019-02-17T09:54:51.743Z,4.41
2019-02-17T09:57:41.526Z,4.44
2019-02-17T10:00:31.352Z,4.50
2019-02-17T10:03:21.053Z,4.94
2019-02-17T10:06:03.422Z,5.11
2019-02-17T10:08:53.242Z,5.29
2019-02-17T10:11:42.980Z,5.42
2019-02-17T10:14:32.736Z,5.56
2019-02-17T10:17:15.298Z,5.67
2019-02-17T10:20:05.250Z,5.80
2019-02-17T10:22:47.900Z,6.10
2019-02-17T10:25:37.636Z,6.35
2019-02-17T10:28:27.365Z,6.53
2019-02-17T10:31:10.086Z,6.57
2019-02-17T10:33:59.892Z,6.54
2019-02-17T10:36:49.621Z,6.67
2019-02-17T10:39:58.408Z,6.80
2019-02-17T10:42:48.135Z,7.13
2019-02-17T10:45:30.967Z,7.05
2019-02-17T10:48:20.742Z,7.24
2019-02-17T10:51:03.150Z,7.36
2019-02-17T10:53:52.870Z,7.24
2019-02-17T10:56:35.128Z,7.30
2019-02-17T10:59:24.890Z,7.34
2019-02-17T11:02:07.686Z,7.60
2019-02-17T11:04:57.394Z,7.64
2019-02-17T11:07:39.780Z,7.90
2019-02-17T11:10:29.502Z,8.10
2019-02-17T11:13:11.675Z,8.22
2019-02-17T11:16:01.379Z,8.29
2019-02-17T11:18:44.000Z,8.51
2019-02-17T11:21:33.742Z,8.64
2019-02-17T11:24:16.040Z,8.87
2019-02-17T11:27:05.798Z,8.90
2019-02-17T11:29:48.068Z,9.09
2019-02-17T11:32:37.832Z,9.14
2019-02-17T11:35:19.796Z,9.35
2019-02-17T11:38:09.527Z,9.50
2019-02-17T11:40:52.226Z,9.74
2019-02-17T11:43:41.909Z,9.89
2019-02-17T11:46:31.662Z,10.08
2019-02-17T11:49:21.404Z,10.21
2019-02-17T11:52:03.858Z,10.18
2019-02-17T11:54:53.555Z,10.44
2019-02-17T11:57:35.979Z,10.48
2019-02-17T12:00:25.724Z,10.49
2019-02-17T12:03:08.564Z,10.22
2019-02-17T12:05:58.290Z,10.43
2019-02-17T12:08:42.517Z,10.80
2019-02-17T12:11:32.213Z,11.11
2019-02-17T12:14:14.925Z,11.08
2019-02-17T12:17:04.674Z,11.35
2019-02-17T12:19:46.777Z,11.27
2019-02-17T12:23:14.365Z,11.29
2019-02-17T12:26:02.838Z,11.25
2019-02-17T12:29:11.371Z,11.49
2019-02-17T12:31:54.275Z,11.50
2019-02-17T12:34:44.018Z,11.72
2019-02-17T12:37:26.455Z,11.77
2019-02-17T12:40:16.162Z,12.07
2019-02-17T12:42:58.521Z,11.97
2019-02-17T12:45:48.273Z,12.17
2019-02-17T12:48:30.681Z,12.22
2019-02-17T12:51:20.402Z,12.20
2019-02-17T12:54:03.429Z,12.26
2019-02-17T12:56:53.146Z,12.30
2019-02-17T12:59:35.675Z,12.41
2019-02-17T13:02:25.401Z,12.28
2019-02-17T13:05:08.139Z,12.35
2019-02-17T13:07:57.863Z,12.20
2019-02-17T13:10:40.245Z,12.33
2019-02-17T13:13:29.981Z,12.52
2019-02-17T13:16:00.723Z,12.47
2019-02-17T13:18:50.451Z,12.58
2019-02-17T13:21:33.281Z,12.54
2019-02-17T13:24:23.010Z,12.68
2019-02-17T13:27:04.987Z,12.75
2019-02-17T13:29:54.737Z,12.54
2019-02-17T13:32:37.653Z,12.56
2019-02-17T13:35:27.399Z,12.58
2019-02-17T13:38:09.400Z,12.60
2019-02-17T13:40:59.151Z,12.60
2019-02-17T13:43:41.537Z,12.67
2019-02-17T13:46:31.272Z,12.78
2019-02-17T13:49:13.758Z,12.90
2019-02-17T13:54:57.163Z,12.73
2019-02-17T13:57:47.051Z,12.98
2019-02-17T14:00:36.872Z,12.90
2019-02-17T14:03:26.702Z,12.98
2019-02-17T14:06:16.518Z,13.11
2019-02-17T14:09:06.795Z,13.07
2019-02-17T14:12:08.742Z,13.11
2019-02-17T14:14:50.750Z,13.12
2019-02-17T14:17:40.478Z,13.09
2019-02-17T14:20:23.088Z,13.08
2019-02-17T14:23:12.836Z,13.19
2019-02-17T14:25:55.098Z,13.18
2019-02-17T14:28:44.802Z,13.18
2019-02-17T14:31:26.862Z,13.17
2019-02-17T14:34:16.568Z,13.07
2019-02-17T14:36:58.654Z,12.91
2019-02-17T14:39:48.482Z,12.88
2019-02-17T14:42:31.028Z,13.05
2019-02-17T14:45:13.062Z,13.08
2019-02-17T14:47:55.232Z,13.03
2019-02-17T14:50:45.066Z,13.13
2019-02-17T14:53:47.366Z,13.12
2019-02-17T14:56:30.353Z,13.19
2019-02-17T15:02:21.468Z,13.14
2019-02-17T15:05:11.197Z,13.15
2019-02-17T15:07:53.392Z,13.10
2019-02-17T15:10:43.116Z,13.07
2019-02-17T15:13:32.842Z,13.04
2019-02-17T15:16:15.350Z,13.01
2019-02-17T15:19:05.099Z,12.98
2019-02-17T15:21:47.782Z,12.92
2019-02-17T15:24:37.524Z,12.70
2019-02-17T15:27:27.279Z,12.86
2019-02-17T15:30:36.150Z,12.85
2019-02-17T15:33:39.327Z,12.74
2019-02-17T15:36:29.106Z,12.85
2019-02-17T15:39:18.895Z,12.86
2019-02-17T15:45:14.136Z,12.72
2019-02-17T15:47:56.738Z,12.75
2019-02-17T15:50:46.645Z,12.73
2019-02-17T15:53:36.473Z,12.72
2019-02-17T15:56:19.098Z,12.62
2019-02-17T15:59:28.125Z,12.62
2019-02-17T16:02:17.917Z,12.57
2019-02-17T16:05:00.461Z,12.48
2019-02-17T16:07:31.094Z,12.44
2019-02-17T16:10:20.853Z,12.41
2019-02-17T16:13:03.405Z,12.40
2019-02-17T16:15:53.347Z,12.39
2019-02-17T16:18:43.134Z,12.32
2019-02-17T16:21:32.891Z,12.27
2019-02-17T16:24:22.605Z,12.26
2019-02-17T16:27:05.978Z,12.07
2019-02-17T16:29:48.075Z,12.08
2019-02-17T16:32:37.805Z,12.02
2019-02-17T16:35:27.686Z,11.84
2019-02-17T16:38:10.613Z,11.87
2019-02-17T16:41:00.427Z,11.88
2019-02-17T16:43:50.228Z,11.76
2019-02-17T16:46:40.031Z,11.62
2019-02-17T16:49:29.777Z,11.43
2019-02-17T16:52:19.615Z,11.42
2019-02-17T16:55:03.975Z,11.44
2019-02-17T16:57:53.727Z,11.38
2019-02-17T17:00:37.028Z,11.07
2019-02-17T17:03:26.851Z,10.96
2019-02-17T17:06:09.207Z,10.89
2019-02-17T17:09:10.828Z,10.52
2019-02-17T17:11:53.543Z,10.50
2019-02-17T17:14:43.438Z,10.63
2019-02-17T17:17:33.326Z,10.66
2019-02-17T17:20:23.266Z,10.31
2019-02-17T17:23:13.096Z,10.36
2019-02-17T17:26:02.969Z,9.93
2019-02-17T17:28:52.745Z,10.03
2019-02-17T17:31:42.754Z,9.87
2019-02-17T17:34:45.154Z,9.68
2019-02-17T17:40:20.024Z,9.29
2019-02-17T17:43:09.797Z,9.15
2019-02-17T17:45:59.549Z,9.11
2019-02-17T17:48:42.200Z,8.84
2019-02-17T17:51:31.999Z,8.72
2019-02-17T17:54:21.825Z,8.59
2019-02-17T17:57:11.636Z,8.53
2019-02-17T18:00:01.487Z,8.40
2019-02-17T18:02:51.297Z,8.40
2019-02-17T18:05:41.202Z,8.27
2019-02-17T18:08:30.965Z,8.46
2019-02-17T18:11:20.729Z,8.28
2019-02-17T18:14:10.577Z,8.09
2019-02-17T18:17:00.378Z,8.01
2019-02-17T18:19:50.195Z,7.90
2019-02-17T18:22:40.212Z,7.86
2019-02-17T18:25:42.902Z,7.90
2019-02-17T18:28:29.801Z,7.87
2019-02-17T18:31:19.629Z,7.95
2019-02-17T18:34:02.064Z,7.96
2019-02-17T18:36:51.772Z,7.89
2019-02-17T18:39:33.884Z,7.69
2019-02-17T18:42:23.632Z,7.64
2019-02-17T18:45:06.764Z,7.43
2019-02-17T18:47:56.564Z,7.44
2019-02-17T18:50:39.454Z,7.20
2019-02-17T18:53:29.206Z,7.28
2019-02-17T18:56:13.174Z,6.88
2019-02-17T18:59:02.916Z,6.97
2019-02-17T19:01:45.774Z,6.65
2019-02-17T19:04:35.528Z,6.59
2019-02-17T19:07:25.288Z,6.75
2019-02-17T19:10:09.836Z,6.69
2019-02-17T19:12:59.595Z,6.78
2019-02-17T19:15:49.441Z,6.49
2019-02-17T19:18:39.214Z,6.50
2019-02-17T19:21:29.015Z,6.32
2019-02-17T19:24:18.797Z,6.25
2019-02-17T19:27:08.566Z,6.28
2019-02-17T19:29:50.951Z,6.39
2019-02-17T19:32:40.730Z,6.23
2019-02-17T19:35:30.520Z,6.02
2019-02-17T19:38:33.295Z,5.96
2019-02-17T19:41:16.106Z,5.99
2019-02-17T19:44:05.861Z,5.69
2019-02-17T19:49:33.750Z,5.71
2019-02-17T19:52:24.527Z,5.56
2019-02-17T19:55:08.564Z,5.35
2019-02-17T19:57:58.332Z,5.52
2019-02-17T20:00:48.106Z,5.43
2019-02-17T20:06:36.362Z,5.52
2019-02-17T20:09:45.311Z,5.52
2019-02-17T20:12:28.069Z,5.41
2019-02-17T20:15:17.905Z,5.55
2019-02-17T20:21:11.309Z,5.44
2019-02-17T20:23:53.631Z,5.35
2019-02-17T20:26:43.421Z,5.26
2019-02-17T20:29:33.274Z,5.18
2019-02-17T20:32:23.105Z,5.01
2019-02-17T20:35:12.904Z,4.98
2019-02-17T20:38:02.645Z,4.92
2019-02-17T20:40:52.442Z,4.93
2019-02-17T20:43:42.236Z,4.71
2019-02-17T20:46:32.055Z,4.79
2019-02-17T20:49:21.917Z,4.76
2019-02-17T20:52:11.708Z,4.70
2019-02-17T20:55:01.514Z,4.70
2019-02-17T20:57:51.313Z,4.77
2019-02-17T21:04:03.795Z,4.57
2019-02-17T21:06:46.115Z,4.69
2019-02-17T21:12:37.941Z,4.72
2019-02-17T21:15:27.753Z,4.58
2019-02-17T21:18:10.767Z,4.55
2019-02-17T21:21:00.495Z,4.60
2019-02-17T21:23:44.472Z,4.66
2019-02-17T21:26:34.280Z,4.67
2019-02-17T21:29:16.562Z,4.55
2019-02-17T21:32:06.315Z,4.57
2019-02-17T21:34:56.072Z,4.45
2019-02-17T21:37:46.035Z,4.55
2019-02-17T21:40:35.733Z,4.37
2019-02-17T21:43:25.488Z,4.25
2019-02-17T21:46:08.280Z,4.27
2019-02-17T21:48:58.049Z,4.26
2019-02-17T21:51:40.930Z,4.39
2019-02-17T21:54:30.711Z,4.32
2019-02-17T22:00:04.763Z,4.19
2019-02-17T22:02:54.538Z,3.93
2019-02-17T22:05:36.526Z,3.99
2019-02-17T22:11:27.191Z,4.00
2019-02-17T22:14:16.921Z,3.75
2019-02-17T22:16:59.380Z,3.88
2019-02-17T22:19:49.125Z,3.83
2019-02-17T22:22:31.688Z,3.81
2019-02-17T22:25:21.561Z,3.64
2019-02-17T22:28:03.869Z,3.64
2019-02-17T22:30:53.636Z,3.72
2019-02-17T22:33:36.610Z,3.69
2019-02-17T22:36:26.380Z,3.46
2019-02-17T22:39:08.894Z,3.51
2019-02-17T22:41:59.597Z,3.51
2019-02-17T22:44:30.532Z,3.50
2019-02-17T22:47:20.704Z,3.60
2019-02-17T22:50:03.454Z,3.54
2019-02-17T22:52:53.578Z,3.61
2019-02-17T22:55:36.282Z,3.67
2019-02-17T22:58:44.532Z,3.65
2019-02-17T23:01:19.067Z,3.60
2019-02-17T23:04:08.790Z,3.60
2019-02-17T23:06:54.437Z,3.38
2019-02-17T23:12:54.577Z,3.20
2019-02-17T23:15:44.702Z,3.18
2019-02-17T23:18:27.625Z,3.16
2019-02-17T23:20:58.422Z,3.19
2019-02-17T23:23:41.218Z,3.28
2019-02-17T23:26:31.998Z,3.21
2019-02-17T23:29:21.790Z,3.10
2019-02-17T23:32:11.664Z,3.08
2019-02-17T23:37:49.200Z,3.19
2019-02-17T23:40:39.256Z,2.97
2019-02-17T23:43:21.584Z,2.95
2019-02-17T23:49:04.175Z,2.96
2019-02-17T23:51:53.923Z,2.74
2019-02-17T23:54:36.877Z,2.84
2019-02-17T23:57:19.050Z,2.85
